createdAt,value
2022-09-01T00:03:14.498Z,14.88
2022-09-01T00:07:36.860Z,11.90
2022-09-01T00:11:58.838Z,12.25
2022-09-01T00:16:21.575Z,14.60
2022-09-01T00:20:43.719Z,12.18
2022-09-01T00:25:08.619Z,13.75
2022-09-01T00:29:31.219Z,15.40
2022-09-01T00:33:53.240Z,13.10
2022-09-01T00:38:15.258Z,13.07
2022-09-01T00:42:39.979Z,16.02
2022-09-01T00:47:01.819Z,15.30
2022-09-01T00:51:24.321Z,15.18
2022-09-01T00:55:46.321Z,16.58
2022-09-01T01:00:15.840Z,15.60
2022-09-01T01:04:38.239Z,14.57
2022-09-01T01:09:01.590Z,17.70
2022-09-01T01:13:26.278Z,16.05
2022-09-01T01:17:48.539Z,15.38
2022-09-01T01:22:40.418Z,15.10
2022-09-01T01:27:03.638Z,18.05
2022-09-01T01:31:25.980Z,18.02
2022-09-01T01:35:48.239Z,18.23
2022-09-01T01:40:15.831Z,15.85
2022-09-01T01:44:40.959Z,18.65
2022-09-01T01:49:05.158Z,14.07
2022-09-01T01:53:29.019Z,19.40
2022-09-01T01:57:52.678Z,16.63
2022-09-01T02:02:16.762Z,16.02
2022-09-01T02:06:46.019Z,17.15
2022-09-01T02:11:09.142Z,14.15
2022-09-01T02:15:40.160Z,16.55
2022-09-01T02:20:02.186Z,13.55
2022-09-01T02:24:24.880Z,26.55
2022-09-01T02:28:54.671Z,13.55
2022-09-01T02:33:23.598Z,13.73
2022-09-01T02:37:49.519Z,26.02
2022-09-01T02:42:13.970Z,16.45
2022-09-01T02:46:38.118Z,15.70
2022-09-01T02:51:03.759Z,18.40
2022-09-01T02:55:26.151Z,17.67
2022-09-01T02:59:48.678Z,17.35
2022-09-01T03:04:12.799Z,16.88
2022-09-01T03:08:38.858Z,17.95
2022-09-01T03:13:08.502Z,19.65
2022-09-01T03:17:30.730Z,17.88
2022-09-01T03:21:52.858Z,16.48
2022-09-01T03:26:22.258Z,19.98
2022-09-01T03:30:49.878Z,19.75
2022-09-01T03:35:13.078Z,18.98
2022-09-01T03:39:36.098Z,22.80
2022-09-01T03:43:59.611Z,20.50
2022-09-01T03:48:26.818Z,21.45
2022-09-01T03:52:54.678Z,21.17
2022-09-01T03:57:16.558Z,22.60
2022-09-01T04:01:41.737Z,20.38
2022-09-01T04:06:04.500Z,23.92
2022-09-01T04:10:29.094Z,23.30
2022-09-01T04:14:51.398Z,22.58
2022-09-01T04:19:21.202Z,24.95
2022-09-01T04:23:45.618Z,20.63
2022-09-01T04:28:14.598Z,23.80
2022-09-01T04:32:40.458Z,29.15
2022-09-01T04:37:21.462Z,41.03
2022-09-01T04:41:51.359Z,28.73
2022-09-01T04:46:17.985Z,25.50
2022-09-01T04:50:42.898Z,25.58
2022-09-01T04:55:17.994Z,28.48
2022-09-01T04:59:41.158Z,24.20
2022-09-01T05:04:04.055Z,25.30
2022-09-01T05:08:36.268Z,22.35
2022-09-01T05:13:10.079Z,22.92
2022-09-01T05:17:33.462Z,24.42
2022-09-01T05:21:58.406Z,21.80
2022-09-01T05:26:30.203Z,21.58
2022-09-01T05:30:54.365Z,17.30
2022-09-01T05:35:17.730Z,19.58
2022-09-01T05:39:40.679Z,18.67
2022-09-01T05:44:08.295Z,17.70
2022-09-01T05:48:32.180Z,15.73
2022-09-01T05:52:54.058Z,15.55
2022-09-01T05:57:33.974Z,12.07
2022-09-01T06:01:57.478Z,10.77
2022-09-01T06:06:23.218Z,13.27
2022-09-01T06:10:45.539Z,8.38
2022-09-01T06:15:16.264Z,8.75
2022-09-01T06:19:44.461Z,8.27
2022-09-01T06:24:07.323Z,10.18
2022-09-01T06:28:30.278Z,9.05
2022-09-01T06:32:55.418Z,8.23
2022-09-01T06:37:22.672Z,6.10
2022-09-01T06:41:53.076Z,14.50
2022-09-01T06:46:20.919Z,10.27
2022-09-01T06:55:25.899Z,6.32
2022-09-01T06:59:49.260Z,7.38
2022-09-01T07:04:20.395Z,5.63
2022-09-01T07:13:35.860Z,5.72
2022-09-01T07:18:01.258Z,5.95
2022-09-01T07:23:03.632Z,5.18
2022-09-01T07:27:09.458Z,6.50
2022-09-01T07:36:29.375Z,9.35
2022-09-01T07:55:44.115Z,4.70
2022-09-01T08:00:07.640Z,7.90
2022-09-01T08:04:35.483Z,6.70
2022-09-01T08:09:01.022Z,6.75
2022-09-01T08:13:27.499Z,6.55
2022-09-01T08:17:52.112Z,6.00
2022-09-01T08:22:17.479Z,8.43
2022-09-01T08:26:50.039Z,5.88
2022-09-01T08:31:17.744Z,8.02
2022-09-01T08:35:47.221Z,6.25
2022-09-01T08:40:16.780Z,5.65
2022-09-01T08:44:46.016Z,7.60
2022-09-01T08:49:25.763Z,5.93
2022-09-01T08:54:29.902Z,6.13
2022-09-01T08:58:55.555Z,8.65
2022-09-01T09:03:40.751Z,5.18
2022-09-01T09:08:33.524Z,6.88
2022-09-01T09:13:17.005Z,5.65
2022-09-01T09:17:48.599Z,8.38
2022-09-01T09:22:15.101Z,6.82
2022-09-01T09:26:44.736Z,6.13
2022-09-01T09:31:28.656Z,8.43
2022-09-01T09:35:51.163Z,7.03
2022-09-01T09:40:27.578Z,6.70
2022-09-01T09:44:53.099Z,6.18
2022-09-01T09:49:35.939Z,6.60
2022-09-01T09:54:33.882Z,4.93
2022-09-01T09:58:56.060Z,4.60
2022-09-01T10:03:34.056Z,7.95
2022-09-01T10:07:58.840Z,7.15
2022-09-01T10:12:21.020Z,8.40
2022-09-01T10:16:47.923Z,4.47
2022-09-01T10:21:37.939Z,7.88
2022-09-01T10:26:19.479Z,6.75
2022-09-01T10:30:46.215Z,2.65
2022-09-01T10:35:20.039Z,6.70
2022-09-01T10:40:14.990Z,3.95
2022-09-01T10:44:59.018Z,3.85
2022-09-01T10:49:47.303Z,5.82
2022-09-01T10:54:10.551Z,5.28
2022-09-01T11:03:57.709Z,3.38
2022-09-01T11:08:28.798Z,2.65
2022-09-01T11:13:28.353Z,3.40
2022-09-01T11:17:53.079Z,3.30
2022-09-01T11:22:28.720Z,4.25
2022-09-01T11:26:52.719Z,2.80
2022-09-01T11:31:31.349Z,4.55
2022-09-01T11:36:13.066Z,6.00
2022-09-01T11:40:36.427Z,5.25
2022-09-01T11:45:22.678Z,6.20
2022-09-01T11:49:54.369Z,3.83
2022-09-01T11:54:16.698Z,1.67
2022-09-01T11:58:39.580Z,5.88
2022-09-01T12:03:02.004Z,3.90
2022-09-01T12:07:46.203Z,4.07
2022-09-01T12:12:36.546Z,2.72
2022-09-01T12:17:06.663Z,3.90
2022-09-01T12:21:43.845Z,5.95
2022-09-01T12:26:16.420Z,2.45
2022-09-01T12:30:40.860Z,6.45
2022-09-01T12:35:14.187Z,2.88
2022-09-01T12:39:44.795Z,5.72
2022-09-01T12:44:37.804Z,4.45
2022-09-01T12:49:49.972Z,7.22
2022-09-01T12:54:12.750Z,3.47
2022-09-01T12:58:35.238Z,5.00
2022-09-01T13:03:18.269Z,5.43
2022-09-01T13:07:40.658Z,6.72
2022-09-01T13:12:22.118Z,6.28
2022-09-01T13:16:44.408Z,2.50
2022-09-01T13:21:07.758Z,7.63
2022-09-01T13:25:29.803Z,6.82
2022-09-01T13:29:52.513Z,2.67
2022-09-01T13:34:22.310Z,4.43
2022-09-01T13:38:45.720Z,2.67
2022-09-01T13:43:15.347Z,4.15
2022-09-01T13:48:15.287Z,3.33
2022-09-01T13:52:19.859Z,2.22
2022-09-01T13:56:41.838Z,5.60
2022-09-01T14:01:05.195Z,3.05
2022-09-01T14:05:31.871Z,3.55
2022-09-01T14:09:55.173Z,6.35
2022-09-01T14:14:17.238Z,4.93
2022-09-01T14:18:39.845Z,10.55
2022-09-01T14:23:02.920Z,3.60
2022-09-01T14:27:24.858Z,3.45
2022-09-01T14:31:47.079Z,1.85
2022-09-01T14:36:18.338Z,4.38
2022-09-01T14:40:42.345Z,4.65
2022-09-01T14:45:06.137Z,5.30
2022-09-01T14:49:29.310Z,11.38
2022-09-01T14:53:54.953Z,3.38
2022-09-01T14:58:17.433Z,4.70
2022-09-01T15:02:41.862Z,2.50
2022-09-01T15:07:05.616Z,6.30
2022-09-01T15:11:28.799Z,2.72
2022-09-01T15:15:51.114Z,3.83
2022-09-01T15:20:31.917Z,5.82
2022-09-01T15:24:53.980Z,3.42
2022-09-01T15:29:16.359Z,5.45
2022-09-01T15:33:38.467Z,4.85
2022-09-01T15:38:01.212Z,1.85
2022-09-01T15:42:23.383Z,6.13
2022-09-01T15:46:46.054Z,3.72
2022-09-01T15:51:22.713Z,3.25
2022-09-01T15:55:48.179Z,5.32
2022-09-01T16:00:11.679Z,2.08
2022-09-01T16:04:34.159Z,6.28
2022-09-01T16:08:56.465Z,3.83
2022-09-01T16:13:19.016Z,3.80
2022-09-01T16:18:05.439Z,3.83
2022-09-01T16:22:33.299Z,4.68
2022-09-01T16:26:57.498Z,5.25
2022-09-01T16:31:31.067Z,6.97
2022-09-01T16:36:42.519Z,3.42
2022-09-01T16:41:44.799Z,4.53
2022-09-01T16:46:32.375Z,4.45
2022-09-01T16:51:18.619Z,6.97
2022-09-01T16:56:10.340Z,6.68
2022-09-01T17:01:17.361Z,8.98
2022-09-01T17:06:13.721Z,3.92
2022-09-01T17:10:56.539Z,6.20
2022-09-01T17:15:27.779Z,4.68
2022-09-01T17:19:54.503Z,6.03
2022-09-01T17:24:32.119Z,2.10
2022-09-01T17:29:26.419Z,5.55
2022-09-01T17:34:08.919Z,1.83
2022-09-01T17:38:57.779Z,3.22
2022-09-01T17:43:51.799Z,5.20
2022-09-01T17:48:22.064Z,4.15
2022-09-01T17:53:11.913Z,6.40
2022-09-01T17:58:15.232Z,8.40
2022-09-01T18:02:43.552Z,3.63
2022-09-01T18:07:35.580Z,2.42
2022-09-01T18:12:09.969Z,3.15
2022-09-01T18:16:47.060Z,8.43
2022-09-01T18:21:38.367Z,2.45
2022-09-01T18:26:29.818Z,5.63
2022-09-01T18:31:11.714Z,6.43
2022-09-01T18:35:54.383Z,5.80
2022-09-01T18:40:33.681Z,4.60
2022-09-01T18:45:07.842Z,3.40
2022-09-01T18:50:08.400Z,6.43
2022-09-01T18:54:37.659Z,4.45
2022-09-01T18:59:25.676Z,5.65
2022-09-01T19:04:19.439Z,7.95
2022-09-01T19:09:14.579Z,5.88
2022-09-01T19:13:56.800Z,4.57
2022-09-01T19:18:23.222Z,4.22
2022-09-01T19:23:27.198Z,7.53
2022-09-01T19:28:30.818Z,5.38
2022-09-01T19:32:53.679Z,5.88
2022-09-01T19:37:16.424Z,10.55
2022-09-01T19:41:51.520Z,11.95
2022-09-01T19:46:35.849Z,8.07
2022-09-01T19:51:08.293Z,6.32
2022-09-01T19:55:46.460Z,8.40
2022-09-01T20:00:13.940Z,7.78
2022-09-01T20:04:46.512Z,7.13
2022-09-01T20:09:37.631Z,10.75
2022-09-01T20:14:32.300Z,6.70
2022-09-01T20:19:22.919Z,5.45
2022-09-01T20:24:13.620Z,7.13
2022-09-01T20:28:59.740Z,5.20
2022-09-01T20:33:55.374Z,4.45
2022-09-01T20:38:52.503Z,8.50
2022-09-01T20:43:25.262Z,4.93
2022-09-01T20:47:55.543Z,5.60
2022-09-01T20:52:27.022Z,5.05
2022-09-01T20:56:51.505Z,4.97
2022-09-01T21:01:34.891Z,8.80
2022-09-01T21:06:43.622Z,11.75
2022-09-01T21:11:40.026Z,13.38
2022-09-01T21:16:31.057Z,9.68
2022-09-01T21:20:58.702Z,10.48
2022-09-01T21:25:20.802Z,12.32
2022-09-01T21:29:53.867Z,10.52
2022-09-01T21:34:17.056Z,12.18
2022-09-01T21:38:39.694Z,9.10
2022-09-01T21:43:07.046Z,7.93
2022-09-01T21:47:32.464Z,9.88
2022-09-01T21:51:54.362Z,10.52
2022-09-01T21:56:16.262Z,8.68
2022-09-01T22:00:40.582Z,14.60
2022-09-01T22:05:05.782Z,13.02
2022-09-01T22:09:28.702Z,7.43
2022-09-01T22:13:50.843Z,16.40
2022-09-01T22:18:14.242Z,7.95
2022-09-01T22:22:36.884Z,11.60
2022-09-01T22:26:59.082Z,11.15
2022-09-01T22:31:22.700Z,13.45
2022-09-01T22:35:48.823Z,8.70
2022-09-01T22:40:13.212Z,8.68
2022-09-01T22:44:35.122Z,11.35
2022-09-01T22:48:59.002Z,9.55
2022-09-01T22:53:22.764Z,9.48
2022-09-01T22:57:44.940Z,5.97
2022-09-01T23:02:07.181Z,14.23
2022-09-01T23:06:31.681Z,8.30
2022-09-01T23:10:54.340Z,11.48
2022-09-01T23:15:16.462Z,9.88
2022-09-01T23:19:38.361Z,8.18
2022-09-01T23:24:01.621Z,8.52
2022-09-01T23:28:24.264Z,7.85
2022-09-01T23:32:46.263Z,13.70
2022-09-01T23:37:08.264Z,7.82
2022-09-01T23:41:34.014Z,8.77
2022-09-01T23:45:57.190Z,9.07
2022-09-01T23:50:19.685Z,10.82
2022-09-01T23:54:41.621Z,11.65
2022-09-01T23:59:04.382Z,12.75
